Flight Track Log - Related Links

Times and Time Zones

All times are in EDT time to prevent confusion due to time zone crossing. See the CTL13 flight status page for this flight to view local times or setup timezone preferences in your user account.

Time Position Orientation Groundspeed Altitude Reporting Facility
EDT Latitude Longitude Course Direction KTS MPH feet Rate Location/Type
Mon 10:56:29 PM 41.7833 -87.7167 90° East 118 136 1,700  Level Chicago TRACON
Mon 10:57:29 PM 41.7833 -87.6667 90° East 128 147 2,900 1,200 Climbing Chicago TRACON
Mon 10:58:29 PM 41.7667 -87.6333 124° Southeast 134 154 4,100 1,030 Climbing Chicago TRACON
Mon 10:59:08 PM 41.7731 -87.5964 77° East 131 151 4,600 900 Climbing Chicago Center
Mon 11:00:09 PM 41.7781 -87.5369 84° East 154 177 5,600 639 Climbing Chicago Center
Mon 11:01:10 PM 41.8056 -87.4919 51° Northeast 153 176 5,900 148 Climbing Chicago Center
Mon 11:02:11 PM 41.8350 -87.4364 55° Northeast 175 201 5,900 49 Level Chicago Center
Mon 11:03:12 PM 41.8664 -87.3797 53° Northeast 188 216 6,000  Climbing Chicago Center
Mon 11:04:13 PM 41.8967 -87.3231 54° Northeast 187 215 5,900 -49 Descending Chicago Center
Mon 11:05:14 PM 41.9278 -87.2661 54° Northeast 191 220 5,900  Level Chicago Center
Mon 11:06:15 PM 41.9650 -87.1992 53° Northeast 189 217 5,900  Level Chicago Center
Mon 11:07:16 PM 41.9950 -87.1419 55° Northeast 188 216 5,900  Level Chicago Center
Mon 11:08:17 PM 42.0269 -87.0867 52° Northeast 188 216 5,900  Level Chicago Center
Mon 11:09:18 PM 42.0558 -87.0319 55° Northeast 188 216 5,900 246 Level Chicago Center
Mon 11:10:19 PM 42.0853 -86.9783 53° Northeast 180 207 6,400 492 Climbing Chicago Center
Mon 11:11:20 PM 42.1122 -86.9314 52° Northeast 162 186 6,900 248 Climbing Chicago Center
Mon 11:12:20 PM 42.1417 -86.8786 53° Northeast 176 203 6,900  Level Chicago Center
Mon 11:13:21 PM 42.1722 -86.8231 53° Northeast 183 211 6,900  Level Chicago Center
Mon 11:14:22 PM 42.2008 -86.7683 55° Northeast 180 207 6,900  Level Chicago Center
Mon 11:15:23 PM 42.2311 -86.7161 52° Northeast 178 205 6,900  Level Chicago Center
Mon 11:16:24 PM 42.2617 -86.6597 54° Northeast 184 212 6,900  Level Chicago Center
Mon 11:17:25 PM 42.2986 -86.5961 52° Northeast 181 208 6,900  Level Chicago Center
Mon 11:18:26 PM 42.3261 -86.5431 55° Northeast 182 209 6,900  Level Chicago Center
Mon 11:19:27 PM 42.3558 -86.4869 54° Northeast 183 211 6,900  Level Chicago Center
Mon 11:20:28 PM 42.3861 -86.4311 54° Northeast 185 213 6,900  Level Chicago Center
Mon 11:21:29 PM 42.4172 -86.3761 53° Northeast 184 212 6,900  Level Chicago Center
Mon 11:22:30 PM 42.4475 -86.3200 54° Northeast 185 213 6,900  Level Chicago Center
Mon 11:23:31 PM 42.4781 -86.2625 54° Northeast 188 216 6,900  Level Chicago Center
Mon 11:24:32 PM 42.5039 -86.2019 60° Northeast 187 215 6,900  Level Chicago Center
Mon 11:25:33 PM 42.5283 -86.1392 62° Northeast 188 216 6,900  Level Chicago Center
Mon 11:26:34 PM 42.5597 -86.0661 60° Northeast 188 216 6,900  Level Chicago Center
Mon 11:27:35 PM 42.5833 -86.0025 63° Northeast 189 217 6,900 -347 Level Chicago Center
Mon 11:28:35 PM 42.6081 -85.9347 64° Northeast 197 227 6,200 -595 Descending Chicago Center
Mon 11:29:36 PM 42.6347 -85.8667 62° Northeast 204 235 5,700 -590 Descending Chicago Center
Mon 11:30:37 PM 42.6636 -85.8025 59° Northeast 203 234 5,000 -393 Descending Chicago Center
Mon 11:31:38 PM 42.6917 -85.7411 58° Northeast 196 226 4,900 -49 Descending Chicago Center
Mon 11:32:39 PM 42.7164 -85.6828 60° Northeast 185 213 4,900  Level Chicago Center
Mon 11:33:40 PM 42.7406 -85.6214 62° Northeast 183 211 4,900  Level Chicago Center
Mon 11:34:41 PM 42.7581 -85.5544 70° East 188 216 4,900  Level Chicago Center
Mon 11:35:41 PM 42.7764 -85.4878 69° East 188 216 4,900  Level Chicago Center
Mon 11:36:42 PM 42.7944 -85.4231 69° East 185 213 4,900 -393 Level Chicago Center
Mon 11:37:43 PM 42.8183 -85.3422 68° East 190 219 4,100 -885 Descending Chicago Center
Mon 11:38:44 PM 42.8364 -85.2742 70° East 192 221 3,100 -590 Descending Chicago Center
Mon 11:39:45 PM 42.8703 -85.2756 358° North 157 181 2,900 -246 Descending Chicago Center
Mon 11:40:46 PM 42.8889 -85.3147 303° West 131 151 2,600 -149 Descending Chicago Center
Mon 11:41:46 PM 42.8983 -85.3589 286° West 124 143 2,600 -149 Level Chicago Center
Mon 11:42:47 PM 42.8925 -85.4025 260° West 118 136 2,300 -443 Descending Chicago Center
Mon 11:43:48 PM 42.8875 -85.4444 261° West 115 132 1,700 -590 Descending Chicago Center
Mon 11:44:49 PM 42.8828 -85.4853 261° West 113 130 1,100 -393 Descending Chicago Center
Mon 11:45:50 PM 42.8781 -85.5264 261° West 113 130 900 -197 Descending Chicago Center

Login

Don't have an account? Register now (free) for customized features, flight alerts, and more!